Digges, Canada
Current Conditions -  °F | °C
As of 5:00 AM on Saturday 25 Oct 2014 (Local Time) from CYYQ Reporting Station
Moderate Fog Moderate Fog  
Wind Chill: 31°   Ceiling: 300
Heat Index: 37°   Visibility: 0.25mi
Dew Point: 37°   Wind: 8mph
Humidity: 100%   Direction: 330°NNW
Pressure: 29.36"   Gusts: NA
Location:  58.57°N, 94.12°W
Report Text: CYYQ 251000Z 33007KT 1/4SM R33/3000FT/U FG VV003 03/03 A2936 RMK FG8 SLP945
Loading
Personal Weather Stations






























Interactive Weather Map
Tropical Storm Tracking
New forecast layout! Learn more

10-Day Weather Forecast

Advertisements
Track Severe Weather on mobile